createdAt,value
2022-11-25T00:00:02.788Z,4.20
2022-11-25T00:01:02.906Z,4.20
2022-11-25T00:02:02.823Z,4.20
2022-11-25T00:03:02.731Z,4.10
2022-11-25T00:04:02.665Z,4.10
2022-11-25T00:05:02.719Z,4.10
2022-11-25T00:06:02.765Z,4.10
2022-11-25T00:07:02.604Z,4.10
2022-11-25T00:08:02.636Z,4.10
2022-11-25T00:09:03.515Z,4.00
2022-11-25T00:10:03.485Z,4.00
2022-11-25T00:11:03.449Z,4.00
2022-11-25T00:12:03.348Z,4.00
2022-11-25T00:13:03.463Z,4.00
2022-11-25T00:14:03.357Z,3.90
2022-11-25T00:15:03.236Z,3.90
2022-11-25T00:16:03.285Z,3.90
2022-11-25T00:17:03.276Z,3.90
2022-11-25T00:18:03.282Z,3.80
2022-11-25T00:19:03.226Z,3.80
2022-11-25T00:20:03.102Z,3.80
2022-11-25T00:21:03.177Z,3.80
2022-11-25T00:22:03.255Z,3.70
2022-11-25T00:23:03.130Z,3.70
2022-11-25T00:24:03.010Z,3.70
2022-11-25T00:25:03.020Z,3.70
2022-11-25T00:26:03.009Z,3.70
2022-11-25T00:27:02.933Z,3.70
2022-11-25T00:28:02.878Z,3.60
2022-11-25T00:29:02.965Z,3.60
2022-11-25T00:30:02.880Z,3.60
2022-11-25T00:31:02.813Z,3.70
2022-11-25T00:32:02.926Z,3.60
2022-11-25T00:33:02.844Z,3.60
2022-11-25T00:34:02.738Z,3.60
2022-11-25T00:35:02.785Z,3.60
2022-11-25T00:36:02.699Z,3.60
2022-11-25T00:37:02.691Z,3.60
2022-11-25T00:38:02.667Z,3.60
2022-11-25T00:39:02.625Z,3.60
2022-11-25T00:40:02.589Z,3.60
2022-11-25T00:41:03.539Z,3.50
2022-11-25T00:42:03.486Z,3.50
2022-11-25T00:43:03.525Z,3.50
2022-11-25T00:44:03.429Z,3.50
2022-11-25T00:45:03.469Z,3.50
2022-11-25T00:46:03.462Z,3.50
2022-11-25T00:47:03.430Z,3.50
2022-11-25T00:48:03.337Z,3.50
2022-11-25T00:49:03.233Z,3.50
2022-11-25T00:50:03.298Z,3.50
2022-11-25T00:51:03.145Z,3.50
2022-11-25T00:52:03.125Z,3.50
2022-11-25T00:53:03.018Z,3.50
2022-11-25T00:54:03.086Z,3.50
2022-11-25T00:55:03.052Z,3.50
2022-11-25T00:56:03.108Z,3.40
2022-11-25T00:57:03.080Z,3.50
2022-11-25T00:58:03.012Z,3.40
2022-11-25T00:59:02.910Z,3.40
2022-11-25T01:00:02.929Z,3.40
2022-11-25T01:01:02.903Z,3.40
2022-11-25T01:02:02.826Z,3.40
2022-11-25T01:03:02.806Z,3.40
2022-11-25T01:04:02.856Z,3.40
2022-11-25T01:05:02.971Z,3.40
2022-11-25T01:06:02.878Z,3.40
2022-11-25T01:07:02.858Z,3.40
2022-11-25T01:08:02.776Z,3.30
2022-11-25T01:09:02.755Z,3.40
2022-11-25T01:10:02.944Z,3.30
2022-11-25T01:11:02.871Z,3.30
2022-11-25T01:12:03.084Z,3.30
2022-11-25T01:13:03.017Z,3.30
2022-11-25T01:14:02.917Z,3.30
2022-11-25T01:15:02.794Z,3.20
2022-11-25T01:16:02.915Z,3.20
2022-11-25T01:17:02.924Z,3.20
2022-11-25T01:18:02.814Z,3.20
2022-11-25T01:19:02.980Z,3.20
2022-11-25T01:20:03.072Z,3.10
2022-11-25T01:21:03.091Z,3.10
2022-11-25T01:22:03.182Z,3.10
2022-11-25T01:23:03.101Z,3.10
2022-11-25T01:24:03.033Z,3.10
2022-11-25T01:25:02.952Z,3.10
2022-11-25T01:26:02.955Z,3.10
2022-11-25T01:27:03.030Z,3.10
2022-11-25T01:28:02.915Z,3.10
2022-11-25T01:29:02.871Z,3.10
2022-11-25T01:30:02.947Z,3.10
2022-11-25T01:31:02.841Z,3.10
2022-11-25T01:32:02.864Z,3.10
2022-11-25T01:33:02.791Z,3.10
2022-11-25T01:34:02.793Z,3.10
2022-11-25T01:35:02.805Z,3.10
2022-11-25T01:36:02.708Z,3.00
2022-11-25T01:37:02.569Z,3.00
2022-11-25T01:38:02.602Z,3.00
2022-11-25T01:39:02.623Z,3.00
2022-11-25T01:40:02.629Z,3.00
2022-11-25T01:41:03.581Z,3.00
2022-11-25T01:42:03.490Z,3.00
2022-11-25T01:43:03.597Z,2.90
2022-11-25T01:44:03.577Z,2.90
2022-11-25T01:45:03.495Z,2.90
2022-11-25T01:46:03.551Z,2.90
2022-11-25T01:47:03.454Z,2.90
2022-11-25T01:48:03.462Z,2.90
2022-11-25T01:49:03.580Z,2.90
2022-11-25T01:50:03.497Z,2.90
2022-11-25T01:51:02.890Z,2.80
2022-11-25T01:52:02.923Z,2.90
2022-11-25T01:53:02.897Z,2.80
2022-11-25T01:54:02.776Z,2.80
2022-11-25T01:55:02.940Z,2.80
2022-11-25T01:56:02.836Z,2.80
2022-11-25T01:57:02.723Z,2.70
2022-11-25T01:58:02.708Z,2.70
2022-11-25T01:59:02.610Z,2.70
2022-11-25T02:00:03.574Z,2.70
2022-11-25T02:01:03.535Z,2.70
2022-11-25T02:02:03.475Z,2.70
2022-11-25T02:03:03.556Z,2.70
2022-11-25T02:04:03.463Z,2.70
2022-11-25T02:05:03.492Z,2.70
2022-11-25T02:06:03.441Z,2.70
2022-11-25T02:07:03.375Z,2.70
2022-11-25T02:08:03.259Z,2.70
2022-11-25T02:09:03.259Z,2.60
2022-11-25T02:10:03.195Z,2.70
2022-11-25T02:11:03.171Z,2.60
2022-11-25T02:12:03.106Z,2.60
2022-11-25T02:13:03.049Z,2.60
2022-11-25T02:14:03.090Z,2.60
2022-11-25T02:15:03.116Z,2.60
2022-11-25T02:16:03.131Z,2.60
2022-11-25T02:17:03.033Z,2.60
2022-11-25T02:18:03.090Z,2.60
2022-11-25T02:19:03.043Z,2.50
2022-11-25T02:20:03.002Z,2.50
2022-11-25T02:21:02.892Z,2.50
2022-11-25T02:22:02.812Z,2.50
2022-11-25T02:23:02.877Z,2.50
2022-11-25T02:24:02.791Z,2.50
2022-11-25T02:25:02.715Z,2.50
2022-11-25T02:26:02.787Z,2.50
2022-11-25T02:27:02.639Z,2.50
2022-11-25T02:28:02.573Z,2.40
2022-11-25T02:29:02.585Z,2.40
2022-11-25T02:30:02.685Z,2.40
2022-11-25T02:31:03.128Z,2.40
2022-11-25T02:32:03.060Z,2.40
2022-11-25T02:33:02.997Z,2.40
2022-11-25T02:34:02.868Z,2.40
2022-11-25T02:35:02.894Z,2.40
2022-11-25T02:36:02.867Z,2.40
2022-11-25T02:37:02.839Z,2.40
2022-11-25T02:38:02.759Z,2.40
2022-11-25T02:39:02.669Z,2.40
2022-11-25T02:40:02.693Z,2.40
2022-11-25T02:41:02.609Z,2.40
2022-11-25T02:42:02.635Z,2.40
2022-11-25T02:43:03.600Z,2.40
2022-11-25T02:44:03.552Z,2.40
2022-11-25T02:45:03.508Z,2.40
2022-11-25T02:46:03.457Z,2.30
2022-11-25T02:47:03.506Z,2.30
2022-11-25T02:48:03.528Z,2.30
2022-11-25T02:49:10.102Z,2.30
2022-11-25T02:50:03.381Z,2.30
2022-11-25T02:51:03.304Z,2.30
2022-11-25T02:52:03.257Z,2.30
2022-11-25T02:53:03.131Z,2.30
2022-11-25T02:54:03.195Z,2.20
2022-11-25T02:55:03.064Z,2.30
2022-11-25T02:56:03.122Z,2.20
2022-11-25T02:57:03.049Z,2.20
2022-11-25T02:58:03.123Z,2.20
2022-11-25T02:59:03.062Z,2.20
2022-11-25T03:00:03.103Z,2.20
2022-11-25T03:01:03.163Z,2.20
2022-11-25T03:02:03.267Z,2.20
2022-11-25T03:03:03.115Z,2.20
2022-11-25T03:04:03.017Z,2.20
2022-11-25T03:05:02.952Z,2.20
2022-11-25T03:06:03.044Z,2.20
2022-11-25T03:07:03.133Z,2.20
2022-11-25T03:08:03.056Z,2.10
2022-11-25T03:09:03.069Z,2.10
2022-11-25T03:10:02.935Z,2.10
2022-11-25T03:11:02.900Z,2.10
2022-11-25T03:12:02.825Z,2.10
2022-11-25T03:13:02.740Z,2.10
2022-11-25T03:14:02.737Z,2.10
2022-11-25T03:15:02.606Z,2.10
2022-11-25T03:16:03.618Z,2.10
2022-11-25T03:17:03.547Z,2.10
2022-11-25T03:18:03.447Z,2.10
2022-11-25T03:19:03.493Z,2.00
2022-11-25T03:20:03.506Z,2.00
2022-11-25T03:21:02.570Z,2.00
2022-11-25T03:22:03.541Z,2.00
2022-11-25T03:23:03.491Z,2.00
2022-11-25T03:24:03.522Z,2.00
2022-11-25T03:25:03.492Z,2.00
2022-11-25T03:26:03.576Z,2.00
2022-11-25T03:27:03.493Z,2.00
2022-11-25T03:28:03.386Z,2.00
2022-11-25T03:29:03.401Z,2.00
2022-11-25T03:30:03.289Z,2.00
2022-11-25T03:31:03.220Z,2.00
2022-11-25T03:32:06.763Z,2.00
2022-11-25T03:33:03.130Z,2.00
2022-11-25T03:34:03.177Z,2.00
2022-11-25T03:35:03.227Z,2.00
2022-11-25T03:36:03.220Z,2.00
2022-11-25T03:37:03.229Z,2.00
2022-11-25T03:38:03.097Z,2.00
2022-11-25T03:39:03.100Z,1.90
2022-11-25T03:40:03.205Z,1.90
2022-11-25T03:41:03.129Z,1.90
2022-11-25T03:42:03.056Z,1.90
2022-11-25T03:43:03.002Z,1.90
2022-11-25T03:44:03.060Z,1.90
2022-11-25T03:45:03.065Z,1.90
2022-11-25T03:46:03.088Z,1.90
2022-11-25T03:47:03.069Z,1.90
2022-11-25T03:48:02.975Z,1.90
2022-11-25T03:49:02.942Z,1.90
2022-11-25T03:50:02.903Z,1.90
2022-11-25T03:51:02.787Z,2.00
2022-11-25T03:52:02.859Z,2.00
2022-11-25T03:53:02.816Z,2.00
2022-11-25T03:54:02.784Z,2.00
2022-11-25T03:55:02.737Z,2.00
2022-11-25T03:56:02.640Z,2.00
2022-11-25T03:57:02.598Z,2.00
2022-11-25T03:58:03.607Z,2.00
2022-11-25T03:59:03.512Z,2.00
2022-11-25T04:00:02.586Z,2.00
2022-11-25T04:01:02.652Z,2.00
2022-11-25T04:02:02.676Z,2.00
2022-11-25T04:03:03.543Z,2.10
2022-11-25T04:04:03.448Z,2.10
2022-11-25T04:05:03.423Z,2.10
2022-11-25T04:06:03.340Z,2.10
2022-11-25T04:07:03.310Z,2.10
2022-11-25T04:08:03.364Z,2.10
2022-11-25T04:09:03.175Z,2.10
2022-11-25T04:10:03.284Z,2.20
2022-11-25T04:11:03.219Z,2.20
2022-11-25T04:12:03.151Z,2.20
2022-11-25T04:13:03.195Z,2.30
2022-11-25T04:14:03.133Z,2.30
2022-11-25T04:15:03.118Z,2.30
2022-11-25T04:16:03.047Z,2.30
2022-11-25T04:17:03.116Z,2.30
2022-11-25T04:18:03.031Z,2.30
2022-11-25T04:19:03.095Z,2.30
2022-11-25T04:20:03.119Z,2.30
2022-11-25T04:21:02.998Z,2.30
2022-11-25T04:22:02.676Z,2.30
2022-11-25T04:23:02.696Z,2.30
2022-11-25T04:24:02.723Z,2.30
2022-11-25T04:25:02.657Z,2.30
2022-11-25T04:26:02.718Z,2.30
2022-11-25T04:27:02.738Z,2.30
2022-11-25T04:28:02.671Z,2.30
2022-11-25T04:29:02.715Z,2.30
2022-11-25T04:30:02.723Z,2.30
2022-11-25T04:31:02.706Z,2.30
2022-11-25T04:32:02.743Z,2.20
2022-11-25T04:33:02.686Z,2.20
2022-11-25T04:34:02.631Z,2.20
2022-11-25T04:35:02.650Z,2.20
2022-11-25T04:36:03.555Z,2.20
2022-11-25T04:37:03.514Z,2.20
2022-11-25T04:38:03.624Z,2.20
2022-11-25T04:39:03.496Z,2.20
2022-11-25T04:40:03.500Z,2.20
2022-11-25T04:41:03.417Z,2.20
2022-11-25T04:42:03.448Z,2.20
2022-11-25T04:43:07.574Z,2.20
2022-11-25T04:44:03.493Z,2.20
2022-11-25T04:45:22.337Z,2.20
2022-11-25T04:46:13.831Z,2.20
2022-11-25T04:47:03.551Z,2.20
2022-11-25T04:48:03.449Z,2.20
2022-11-25T04:49:03.352Z,2.20
2022-11-25T04:50:03.354Z,2.20
2022-11-25T04:51:03.298Z,2.20
2022-11-25T04:52:03.285Z,2.20
2022-11-25T04:53:03.162Z,2.20
2022-11-25T04:54:03.246Z,2.20
2022-11-25T04:55:03.357Z,2.20
2022-11-25T04:56:03.302Z,2.20
2022-11-25T04:57:03.317Z,2.10
2022-11-25T04:58:03.244Z,2.10
2022-11-25T04:59:03.192Z,2.10
2022-11-25T05:00:03.237Z,2.10
2022-11-25T05:01:03.261Z,2.10
2022-11-25T05:02:03.237Z,2.10
2022-11-25T05:03:03.234Z,2.10
2022-11-25T05:04:03.169Z,2.10
2022-11-25T05:05:03.289Z,2.10
2022-11-25T05:06:03.214Z,2.10
2022-11-25T05:07:03.225Z,2.10
2022-11-25T05:08:03.186Z,2.00
2022-11-25T05:09:03.142Z,2.00
2022-11-25T05:10:03.028Z,2.00
2022-11-25T05:11:03.026Z,2.00
2022-11-25T05:12:03.027Z,2.00
2022-11-25T05:13:02.933Z,2.00
2022-11-25T05:14:03.025Z,2.00
2022-11-25T05:15:02.997Z,2.00
2022-11-25T05:16:03.087Z,2.00
2022-11-25T05:17:03.128Z,2.00
2022-11-25T05:18:02.989Z,2.00
2022-11-25T05:19:03.020Z,2.00
2022-11-25T05:20:03.001Z,2.00
2022-11-25T05:21:02.992Z,2.00
2022-11-25T05:22:03.016Z,1.90
2022-11-25T05:23:02.913Z,1.90
2022-11-25T05:24:02.934Z,1.90
2022-11-25T05:25:03.101Z,1.90
2022-11-25T05:26:03.110Z,1.90
2022-11-25T05:27:03.077Z,1.90
2022-11-25T05:28:03.004Z,1.90
2022-11-25T05:29:03.052Z,1.90
2022-11-25T05:30:03.104Z,1.90
2022-11-25T05:31:03.085Z,1.90
2022-11-25T05:32:02.954Z,1.90
2022-11-25T05:33:02.957Z,1.90
2022-11-25T05:34:02.855Z,1.90
2022-11-25T05:35:02.902Z,1.90
2022-11-25T05:36:02.790Z,1.90
2022-11-25T05:37:02.889Z,1.90
2022-11-25T05:38:02.828Z,1.90
2022-11-25T05:39:02.862Z,1.90
2022-11-25T05:40:02.907Z,1.90
2022-11-25T05:41:02.949Z,1.90
2022-11-25T05:42:02.937Z,1.90
2022-11-25T05:43:02.777Z,1.90
2022-11-25T05:44:02.690Z,1.80
2022-11-25T05:45:02.675Z,1.90
2022-11-25T05:46:02.687Z,1.90
2022-11-25T05:47:02.612Z,1.90
2022-11-25T05:48:03.549Z,1.80
2022-11-25T05:49:03.611Z,1.80
2022-11-25T05:50:03.519Z,1.80
2022-11-25T05:51:03.485Z,1.90
2022-11-25T05:52:03.561Z,1.90
2022-11-25T05:53:03.547Z,1.90
2022-11-25T05:54:03.459Z,1.90
2022-11-25T05:55:03.461Z,1.90
2022-11-25T05:56:03.490Z,1.90
2022-11-25T05:57:03.593Z,1.90
2022-11-25T05:58:03.505Z,1.90
2022-11-25T05:59:03.470Z,1.90
2022-11-25T06:00:03.381Z,1.90
2022-11-25T06:01:03.443Z,1.90
2022-11-25T06:02:03.474Z,1.90
2022-11-25T06:03:03.492Z,1.90
2022-11-25T06:04:03.557Z,1.90
2022-11-25T06:05:03.469Z,1.90
2022-11-25T06:06:03.453Z,1.90
2022-11-25T06:07:03.374Z,1.90
2022-11-25T06:08:03.334Z,1.90
2022-11-25T06:09:03.426Z,1.90
2022-11-25T06:10:03.670Z,1.90
2022-11-25T06:11:03.349Z,1.90
2022-11-25T06:12:03.464Z,1.90
2022-11-25T06:13:03.461Z,1.90
2022-11-25T06:14:03.370Z,1.90
2022-11-25T06:15:03.634Z,1.90
2022-11-25T06:16:07.615Z,1.90
2022-11-25T06:17:03.573Z,1.90
2022-11-25T06:18:02.561Z,1.90
2022-11-25T06:19:02.615Z,1.90
2022-11-25T06:20:02.630Z,1.90
2022-11-25T06:21:02.943Z,1.80
2022-11-25T06:22:02.951Z,1.80
2022-11-25T06:23:02.978Z,1.80
2022-11-25T06:24:03.007Z,1.80
2022-11-25T06:25:03.956Z,1.80
2022-11-25T06:26:02.947Z,1.80
2022-11-25T06:27:02.900Z,1.80
2022-11-25T06:28:12.606Z,1.80
2022-11-25T06:29:02.819Z,1.80
2022-11-25T06:30:02.734Z,1.80
2022-11-25T06:31:02.788Z,1.80
2022-11-25T06:32:02.965Z,1.80
2022-11-25T06:33:02.965Z,1.80
2022-11-25T06:34:02.911Z,1.80
2022-11-25T06:35:02.896Z,1.90
2022-11-25T06:36:02.908Z,1.90
2022-11-25T06:37:02.812Z,1.90
2022-11-25T06:38:02.775Z,1.90
2022-11-25T06:39:02.801Z,1.90
2022-11-25T06:40:02.698Z,1.90
2022-11-25T06:41:02.609Z,1.90
2022-11-25T06:42:02.635Z,1.90
2022-11-25T06:43:02.612Z,1.90
2022-11-25T06:44:02.629Z,1.90
2022-11-25T06:45:03.635Z,1.90
2022-11-25T06:46:03.599Z,1.90
2022-11-25T06:47:03.458Z,1.90
2022-11-25T06:48:03.372Z,1.90
2022-11-25T06:49:03.279Z,1.90
2022-11-25T06:50:03.372Z,1.90
2022-11-25T06:51:03.272Z,1.90
2022-11-25T06:52:03.374Z,1.90
2022-11-25T06:53:03.352Z,1.90
2022-11-25T06:54:03.389Z,1.90
2022-11-25T06:55:03.269Z,1.90
2022-11-25T06:56:03.303Z,1.90
2022-11-25T06:57:03.325Z,1.90
2022-11-25T06:58:28.068Z,1.90
2022-11-25T06:59:03.328Z,1.90
2022-11-25T07:00:03.388Z,1.90
2022-11-25T07:01:03.281Z,1.90
2022-11-25T07:02:03.416Z,1.90
2022-11-25T07:03:03.305Z,1.90
2022-11-25T07:04:03.306Z,1.90
2022-11-25T07:05:03.231Z,1.90
2022-11-25T07:06:03.175Z,1.90
2022-11-25T07:07:03.135Z,1.90
2022-11-25T07:08:03.253Z,1.90
2022-11-25T07:09:03.105Z,1.90
2022-11-25T07:10:02.554Z,1.90
2022-11-25T07:11:02.608Z,1.90
2022-11-25T07:12:03.591Z,1.90
2022-11-25T07:13:03.483Z,1.90
2022-11-25T07:14:03.356Z,1.90
2022-11-25T07:15:03.480Z,1.90
2022-11-25T07:16:03.520Z,1.90
2022-11-25T07:17:06.193Z,1.90
2022-11-25T07:18:03.536Z,1.90
2022-11-25T07:19:03.421Z,1.90
2022-11-25T07:20:03.406Z,1.90
2022-11-25T07:21:03.313Z,1.90
2022-11-25T07:22:03.321Z,1.90
2022-11-25T07:23:03.317Z,1.90
2022-11-25T07:24:03.272Z,1.90
2022-11-25T07:25:03.451Z,1.90
2022-11-25T07:26:03.379Z,1.90
2022-11-25T07:27:03.457Z,1.90
2022-11-25T07:28:03.442Z,1.90
2022-11-25T07:29:03.431Z,1.90
2022-11-25T07:30:41.444Z,1.90
2022-11-25T07:31:23.099Z,2.00
2022-11-25T07:32:07.254Z,2.00
2022-11-25T07:33:03.196Z,2.00
2022-11-25T07:34:03.217Z,2.00
2022-11-25T07:35:03.141Z,2.00
2022-11-25T07:36:03.238Z,2.00
2022-11-25T07:37:03.258Z,2.10
2022-11-25T07:38:03.368Z,2.10
2022-11-25T07:39:03.230Z,2.10
2022-11-25T07:40:03.205Z,2.10
2022-11-25T07:41:03.147Z,2.10
2022-11-25T07:42:03.121Z,2.20
2022-11-25T07:43:03.059Z,2.20
2022-11-25T07:44:03.070Z,2.20
2022-11-25T07:45:03.059Z,2.20
2022-11-25T07:46:02.951Z,2.20
2022-11-25T07:47:02.885Z,2.30
2022-11-25T07:48:02.781Z,2.30
2022-11-25T07:49:02.734Z,2.30
2022-11-25T07:50:02.813Z,2.30
2022-11-25T07:51:02.814Z,2.30
2022-11-25T07:52:02.839Z,2.40
2022-11-25T07:53:02.866Z,2.40
2022-11-25T07:54:02.763Z,2.40
2022-11-25T07:55:02.777Z,2.50
2022-11-25T07:56:02.678Z,2.50
2022-11-25T07:57:02.737Z,2.60
2022-11-25T07:58:02.657Z,2.60
2022-11-25T07:59:02.622Z,2.60
2022-11-25T08:00:02.591Z,2.70
2022-11-25T08:01:02.636Z,2.70
2022-11-25T08:02:02.787Z,2.70
2022-11-25T08:03:02.657Z,2.70
2022-11-25T08:04:02.586Z,2.80
2022-11-25T08:05:02.698Z,2.80
2022-11-25T08:06:02.637Z,2.80
2022-11-25T08:07:02.680Z,2.80
2022-11-25T08:08:02.691Z,2.90
2022-11-25T08:09:02.606Z,2.90
2022-11-25T08:10:03.578Z,2.90
2022-11-25T08:11:03.499Z,3.00
2022-11-25T08:12:03.430Z,3.00
2022-11-25T08:13:03.437Z,3.00
2022-11-25T08:14:03.363Z,3.10
2022-11-25T08:15:03.405Z,3.10
2022-11-25T08:16:03.653Z,3.10
2022-11-25T08:17:02.667Z,3.10
2022-11-25T08:18:02.673Z,3.20
2022-11-25T08:19:02.655Z,3.20
2022-11-25T08:20:03.545Z,3.20
2022-11-25T08:21:03.503Z,3.20
2022-11-25T08:22:03.553Z,3.20
2022-11-25T08:23:02.579Z,3.20
2022-11-25T08:24:02.691Z,3.30
2022-11-25T08:25:02.594Z,3.30
2022-11-25T08:26:03.595Z,3.30
2022-11-25T08:27:03.615Z,3.30
2022-11-25T08:28:03.507Z,3.40
2022-11-25T08:29:03.411Z,3.40
2022-11-25T08:30:03.472Z,3.40
2022-11-25T08:31:03.383Z,3.50
2022-11-25T08:32:06.251Z,3.50
2022-11-25T08:33:03.279Z,3.50
2022-11-25T08:34:03.282Z,3.50
2022-11-25T08:35:03.022Z,3.60
2022-11-25T08:36:03.054Z,3.60
2022-11-25T08:37:03.009Z,3.60
2022-11-25T08:38:02.903Z,3.70
2022-11-25T08:39:03.253Z,3.70
2022-11-25T08:40:02.898Z,3.70
2022-11-25T08:41:02.881Z,3.80
2022-11-25T08:42:02.771Z,3.80
2022-11-25T08:43:02.718Z,3.90
2022-11-25T08:44:02.901Z,3.90
2022-11-25T08:45:02.771Z,3.90
2022-11-25T08:46:03.382Z,4.00
2022-11-25T08:47:03.445Z,4.00
2022-11-25T08:48:03.399Z,4.10
2022-11-25T08:49:03.369Z,4.10
2022-11-25T08:50:03.352Z,4.10
2022-11-25T08:51:03.266Z,4.20
2022-11-25T08:52:03.389Z,4.20
2022-11-25T08:53:03.316Z,4.20
2022-11-25T08:54:03.249Z,4.30
2022-11-25T08:55:02.666Z,4.30
2022-11-25T08:56:02.768Z,4.30
2022-11-25T08:57:02.626Z,4.40
2022-11-25T08:58:02.729Z,4.40
2022-11-25T08:59:02.737Z,4.40
2022-11-25T09:00:03.575Z,4.50
2022-11-25T09:01:02.558Z,4.50
2022-11-25T09:02:02.719Z,4.50
2022-11-25T09:03:04.416Z,4.60
2022-11-25T09:04:02.598Z,4.60
2022-11-25T09:05:03.597Z,4.60
2022-11-25T09:06:03.527Z,4.70
2022-11-25T09:07:03.456Z,4.70
2022-11-25T09:08:03.546Z,4.70
2022-11-25T09:09:03.447Z,4.80
2022-11-25T09:10:03.416Z,4.80
2022-11-25T09:11:03.472Z,4.90
2022-11-25T09:12:03.567Z,4.90
2022-11-25T09:13:02.633Z,5.00
2022-11-25T09:14:03.607Z,5.00
2022-11-25T09:15:03.538Z,5.10
2022-11-25T09:16:03.491Z,5.10
2022-11-25T09:17:03.663Z,5.20
2022-11-25T09:18:02.604Z,5.20
2022-11-25T09:19:02.627Z,5.30
2022-11-25T09:20:03.553Z,5.30
2022-11-25T09:21:03.604Z,5.40
2022-11-25T09:22:03.541Z,5.40
2022-11-25T09:23:03.525Z,5.50
2022-11-25T09:24:03.417Z,5.50
2022-11-25T09:25:03.535Z,5.60
2022-11-25T09:26:03.530Z,5.60
2022-11-25T09:27:03.408Z,5.70
2022-11-25T09:28:02.757Z,5.80
2022-11-25T09:29:02.590Z,5.80
2022-11-25T09:30:03.584Z,5.90
2022-11-25T09:31:03.552Z,5.90
2022-11-25T09:32:03.435Z,5.90
2022-11-25T09:33:03.468Z,6.00
2022-11-25T09:34:03.444Z,6.00
2022-11-25T09:35:03.526Z,6.10
2022-11-25T09:36:03.408Z,6.10
2022-11-25T09:37:03.347Z,6.20
2022-11-25T09:38:03.318Z,6.20
2022-11-25T09:39:03.423Z,6.20
2022-11-25T09:40:03.442Z,6.30
2022-11-25T09:41:03.456Z,6.30
2022-11-25T09:42:03.460Z,6.40
2022-11-25T09:43:03.418Z,6.40
2022-11-25T09:44:02.739Z,6.50
2022-11-25T09:45:02.728Z,6.50
2022-11-25T09:46:02.794Z,6.50
2022-11-25T09:47:02.731Z,6.60
2022-11-25T09:48:02.630Z,6.60
2022-11-25T09:49:02.857Z,6.70
2022-11-25T09:50:02.836Z,6.70
2022-11-25T09:51:02.807Z,6.70
2022-11-25T09:52:02.845Z,6.70
2022-11-25T09:53:02.751Z,6.80
2022-11-25T09:54:02.728Z,6.80
2022-11-25T09:55:02.716Z,6.80
2022-11-25T09:56:02.925Z,6.80
2022-11-25T09:57:02.981Z,6.90
2022-11-25T09:58:02.966Z,6.90
2022-11-25T09:59:02.915Z,6.90
2022-11-25T10:00:02.915Z,6.90
2022-11-25T10:01:02.944Z,6.90
2022-11-25T10:02:02.941Z,7.00
2022-11-25T10:03:02.927Z,7.00
2022-11-25T10:04:02.815Z,7.00
2022-11-25T10:05:07.969Z,7.00
2022-11-25T10:06:02.993Z,7.00
2022-11-25T10:07:03.083Z,7.10
2022-11-25T10:08:03.010Z,7.10
2022-11-25T10:09:03.054Z,7.10
2022-11-25T10:10:03.077Z,7.10
2022-11-25T10:11:03.128Z,7.10
2022-11-25T10:12:03.135Z,7.10
2022-11-25T10:13:03.097Z,7.20
2022-11-25T10:14:03.081Z,7.20
2022-11-25T10:15:03.027Z,7.20
2022-11-25T10:16:03.140Z,7.20
2022-11-25T10:17:03.093Z,7.20
2022-11-25T10:18:03.165Z,7.20
2022-11-25T10:19:03.244Z,7.20
2022-11-25T10:20:03.217Z,7.30
2022-11-25T10:21:03.093Z,7.30
2022-11-25T10:22:03.140Z,7.30
2022-11-25T10:23:03.091Z,7.30
2022-11-25T10:24:03.007Z,7.30
2022-11-25T10:25:02.672Z,7.40
2022-11-25T10:26:02.758Z,7.40
2022-11-25T10:27:02.651Z,7.40
2022-11-25T10:28:02.568Z,7.40
2022-11-25T10:29:03.593Z,7.50
2022-11-25T10:30:03.564Z,7.50
2022-11-25T10:31:02.614Z,7.50
2022-11-25T10:32:02.683Z,7.60
2022-11-25T10:33:02.774Z,7.60
2022-11-25T10:34:02.683Z,7.60
2022-11-25T10:35:02.664Z,7.70
2022-11-25T10:36:02.745Z,7.70
2022-11-25T10:37:02.650Z,7.70
2022-11-25T10:38:02.616Z,7.70
2022-11-25T10:39:03.566Z,7.70
2022-11-25T10:40:03.498Z,7.80
2022-11-25T10:41:03.603Z,7.80
2022-11-25T10:42:03.557Z,7.80
2022-11-25T10:43:03.558Z,7.80
2022-11-25T10:44:02.647Z,7.90
2022-11-25T10:45:03.514Z,7.90
2022-11-25T10:46:03.565Z,7.90
2022-11-25T10:47:14.761Z,7.90
2022-11-25T10:48:03.500Z,8.00
2022-11-25T10:49:03.477Z,8.00
2022-11-25T10:50:03.468Z,8.00
2022-11-25T10:51:03.385Z,8.10
2022-11-25T10:52:03.369Z,8.10
2022-11-25T10:53:03.489Z,8.10
2022-11-25T10:54:03.369Z,8.20
2022-11-25T10:55:03.368Z,8.20
2022-11-25T10:56:03.429Z,8.20
2022-11-25T10:57:03.477Z,8.20
2022-11-25T10:58:03.381Z,8.30
2022-11-25T10:59:03.286Z,8.30
2022-11-25T11:00:03.301Z,8.30
2022-11-25T11:01:03.255Z,8.30
2022-11-25T11:02:03.288Z,8.30
2022-11-25T11:03:03.197Z,8.30
2022-11-25T11:04:03.168Z,8.40
2022-11-25T11:05:03.134Z,8.40
2022-11-25T11:06:03.060Z,8.40
2022-11-25T11:07:03.019Z,8.40
2022-11-25T11:08:02.974Z,8.40
2022-11-25T11:09:03.010Z,8.50
2022-11-25T11:10:03.077Z,8.50
2022-11-25T11:11:02.952Z,8.50
2022-11-25T11:12:02.985Z,8.50
2022-11-25T11:13:02.843Z,8.50
2022-11-25T11:14:02.883Z,8.60
2022-11-25T11:15:02.808Z,8.60
2022-11-25T11:16:03.249Z,8.60
2022-11-25T11:17:03.156Z,8.60
2022-11-25T11:18:03.036Z,8.60
2022-11-25T11:19:03.293Z,8.70
2022-11-25T11:20:03.313Z,8.70
2022-11-25T11:21:03.398Z,8.70
2022-11-25T11:22:03.283Z,8.70
2022-11-25T11:23:08.579Z,8.70
2022-11-25T11:24:03.284Z,8.70
2022-11-25T11:25:03.217Z,8.70
2022-11-25T11:26:03.277Z,8.70
2022-11-25T11:27:03.306Z,8.70
2022-11-25T11:28:03.278Z,8.70
2022-11-25T11:29:03.176Z,8.70
2022-11-25T11:30:03.338Z,8.70
2022-11-25T11:31:03.338Z,8.60
2022-11-25T11:32:03.295Z,8.60
2022-11-25T11:33:03.200Z,8.60
2022-11-25T11:34:03.250Z,8.60
2022-11-25T11:35:03.203Z,8.60
2022-11-25T11:36:03.192Z,8.60
2022-11-25T11:37:03.073Z,8.60
2022-11-25T11:38:03.052Z,8.60
2022-11-25T11:39:02.996Z,8.60
2022-11-25T11:40:02.942Z,8.50
2022-11-25T11:41:02.889Z,8.60
2022-11-25T11:42:02.797Z,8.60
2022-11-25T11:43:02.778Z,8.60
2022-11-25T11:44:05.180Z,8.60
2022-11-25T11:45:03.032Z,8.60
2022-11-25T11:46:02.964Z,8.60
2022-11-25T11:47:03.037Z,8.60
2022-11-25T11:48:02.871Z,8.70
2022-11-25T11:49:02.932Z,8.70
2022-11-25T11:50:02.937Z,8.70
2022-11-25T11:51:03.242Z,8.70
2022-11-25T11:52:03.310Z,8.70
2022-11-25T11:53:03.342Z,8.70
2022-11-25T11:54:03.366Z,8.80
2022-11-25T11:55:03.244Z,8.80
2022-11-25T11:56:33.434Z,8.80
2022-11-25T11:57:03.116Z,8.80
2022-11-25T11:58:03.111Z,8.80
2022-11-25T11:59:02.990Z,8.80
2022-11-25T12:00:02.921Z,8.80
2022-11-25T12:01:02.927Z,8.80
2022-11-25T12:02:02.849Z,8.80
2022-11-25T12:03:02.987Z,8.80
2022-11-25T12:04:02.930Z,8.80
2022-11-25T12:05:02.923Z,8.80
2022-11-25T12:06:03.081Z,8.80
2022-11-25T12:07:03.056Z,8.80
2022-11-25T12:08:03.137Z,8.80
2022-11-25T12:09:03.077Z,8.80
2022-11-25T12:10:03.122Z,8.80
2022-11-25T12:11:03.040Z,8.80
2022-11-25T12:12:03.112Z,8.80
2022-11-25T12:13:03.207Z,8.80
2022-11-25T12:14:02.972Z,8.80
2022-11-25T12:15:03.053Z,8.80
2022-11-25T12:16:03.126Z,8.80
2022-11-25T12:17:03.016Z,8.80
2022-11-25T12:18:02.974Z,8.80
2022-11-25T12:19:02.981Z,8.80
2022-11-25T12:20:03.071Z,8.90
2022-11-25T12:21:03.058Z,8.90
2022-11-25T12:22:03.050Z,8.90
2022-11-25T12:23:03.083Z,8.90
2022-11-25T12:24:03.049Z,8.90
2022-11-25T12:25:03.047Z,8.90
2022-11-25T12:26:03.041Z,8.90
2022-11-25T12:27:03.048Z,8.90
2022-11-25T12:28:03.130Z,8.90
2022-11-25T12:29:03.237Z,9.00
2022-11-25T12:30:03.190Z,9.00
2022-11-25T12:31:05.099Z,9.00
2022-11-25T12:32:03.444Z,9.00
2022-11-25T12:33:03.355Z,9.00
2022-11-25T12:34:03.396Z,9.00
2022-11-25T12:35:03.403Z,9.10
2022-11-25T12:36:03.521Z,9.10
2022-11-25T12:37:03.633Z,9.10
2022-11-25T12:38:03.518Z,9.10
2022-11-25T12:39:03.447Z,9.10
2022-11-25T12:40:03.465Z,9.10
2022-11-25T12:41:03.533Z,9.10
2022-11-25T12:42:03.545Z,9.10
2022-11-25T12:43:02.559Z,9.10
2022-11-25T12:44:02.649Z,9.10
2022-11-25T12:45:02.624Z,9.10
2022-11-25T12:46:02.796Z,9.10
2022-11-25T12:47:03.203Z,9.10
2022-11-25T12:48:02.963Z,9.10
2022-11-25T12:49:02.821Z,9.00
2022-11-25T12:50:02.915Z,9.00
2022-11-25T12:51:02.939Z,9.00
2022-11-25T12:52:02.949Z,9.00
2022-11-25T12:53:02.988Z,9.00
2022-11-25T12:54:02.968Z,9.00
2022-11-25T12:55:03.016Z,9.00
2022-11-25T12:56:02.932Z,9.00
2022-11-25T12:57:02.923Z,9.00
2022-11-25T12:58:02.956Z,9.00
2022-11-25T12:59:03.076Z,9.00
2022-11-25T13:00:25.349Z,9.00
2022-11-25T13:01:02.908Z,9.00
2022-11-25T13:02:03.139Z,9.00
2022-11-25T13:03:03.095Z,9.00
2022-11-25T13:04:03.226Z,9.00
2022-11-25T13:05:18.790Z,9.00
2022-11-25T13:06:03.474Z,8.90
2022-11-25T13:07:03.393Z,8.90
2022-11-25T13:08:03.400Z,8.90
2022-11-25T13:09:03.523Z,8.90
2022-11-25T13:10:03.458Z,8.90
2022-11-25T13:11:03.592Z,8.90
2022-11-25T13:12:03.605Z,8.90
2022-11-25T13:13:03.709Z,8.90
2022-11-25T13:14:03.694Z,8.80
2022-11-25T13:15:03.837Z,8.80
2022-11-25T13:16:03.841Z,8.80
2022-11-25T13:17:03.756Z,8.80
2022-11-25T13:18:03.498Z,8.80